createdAt,value
2018-06-30T00:01:38.063Z,36.90
2018-06-30T00:04:06.850Z,37.00
2018-06-30T00:06:35.593Z,37.30
2018-06-30T00:11:35.422Z,39.10
2018-06-30T00:14:04.224Z,39.70
2018-06-30T00:16:32.980Z,40.30
2018-06-30T00:19:02.044Z,40.90
2018-06-30T00:21:30.778Z,40.30
2018-06-30T00:23:59.532Z,40.00
2018-06-30T00:29:32.424Z,40.90
2018-06-30T00:32:01.178Z,40.90
2018-06-30T00:34:30.073Z,41.50
2018-06-30T00:36:58.837Z,40.80
2018-06-30T00:41:56.082Z,41.80
2018-06-30T00:44:25.360Z,42.60
2018-06-30T00:46:54.153Z,42.40
2018-06-30T00:49:22.938Z,41.60
2018-06-30T00:51:52.086Z,41.50
2018-06-30T00:54:21.046Z,41.70
2018-06-30T00:56:49.837Z,41.90
2018-06-30T00:59:18.629Z,43.00
2018-06-30T01:01:47.446Z,42.10
2018-06-30T01:06:44.865Z,43.10
2018-06-30T01:09:13.713Z,45.60
2018-06-30T01:14:10.983Z,44.40
2018-06-30T01:24:06.378Z,44.70
2018-06-30T01:26:35.154Z,45.70
2018-06-30T01:29:03.942Z,45.90
2018-06-30T01:31:32.730Z,46.30
2018-06-30T01:34:01.538Z,46.60
2018-06-30T01:36:30.283Z,45.00
2018-06-30T01:38:59.053Z,45.80
2018-06-30T01:41:27.835Z,45.50
2018-06-30T01:43:56.619Z,45.10
2018-06-30T01:46:25.405Z,46.10
2018-06-30T01:48:54.212Z,46.30
2018-06-30T01:51:23.097Z,46.60
2018-06-30T01:53:51.889Z,48.10
2018-06-30T01:56:20.685Z,48.10
2018-06-30T01:58:49.461Z,48.60
2018-06-30T02:01:18.253Z,50.00
2018-06-30T02:03:47.030Z,50.30
2018-06-30T02:06:15.834Z,51.10
2018-06-30T02:08:45.182Z,51.10
2018-06-30T02:11:14.074Z,51.10
2018-06-30T02:13:42.971Z,52.00
2018-06-30T02:16:11.785Z,52.60
2018-06-30T02:18:40.581Z,52.60
2018-06-30T02:21:09.380Z,53.20
2018-06-30T02:23:38.233Z,53.70
2018-06-30T02:26:06.992Z,55.70
2018-06-30T02:28:37.092Z,55.00
2018-06-30T02:33:34.491Z,57.40
2018-06-30T02:36:03.470Z,56.80
2018-06-30T02:38:32.243Z,58.70
2018-06-30T02:41:01.022Z,59.30
2018-06-30T02:43:29.810Z,59.90
2018-06-30T02:45:58.617Z,61.20
2018-06-30T02:48:27.514Z,58.70
2018-06-30T02:53:24.762Z,59.40
2018-06-30T02:55:53.751Z,57.90
2018-06-30T02:58:22.521Z,58.30
2018-06-30T03:00:51.463Z,57.00
2018-06-30T03:10:45.661Z,56.10
2018-06-30T03:13:14.437Z,55.80
2018-06-30T03:15:43.230Z,54.80
2018-06-30T03:18:12.167Z,54.50
2018-06-30T03:20:40.941Z,55.00
2018-06-30T03:25:38.190Z,53.40
2018-06-30T03:28:06.962Z,53.20
2018-06-30T03:30:35.769Z,54.50
2018-06-30T03:33:04.762Z,53.90
2018-06-30T03:35:33.585Z,53.80
2018-06-30T03:38:02.349Z,53.50
2018-06-30T03:40:31.131Z,53.30
2018-06-30T03:43:00.046Z,53.30
2018-06-30T03:45:28.819Z,52.80
2018-06-30T03:47:57.806Z,51.90
2018-06-30T03:50:26.569Z,52.10
2018-06-30T03:52:55.594Z,51.70
2018-06-30T03:55:24.389Z,51.80
2018-06-30T04:05:18.642Z,51.70
2018-06-30T04:07:47.430Z,51.00
2018-06-30T04:10:16.213Z,50.50
2018-06-30T04:12:51.554Z,50.70
2018-06-30T04:15:20.339Z,51.80
2018-06-30T04:17:49.326Z,51.20
2018-06-30T04:20:18.152Z,50.20
2018-06-30T04:22:46.902Z,50.50
2018-06-30T04:27:44.165Z,50.50
2018-06-30T04:30:13.578Z,49.80
2018-06-30T04:37:39.600Z,49.90
2018-06-30T04:40:08.425Z,49.20
2018-06-30T04:42:37.384Z,48.70
2018-06-30T04:45:06.164Z,48.30
2018-06-30T04:47:35.010Z,48.00
2018-06-30T04:50:03.817Z,48.80
2018-06-30T04:52:32.612Z,47.20
2018-06-30T04:55:01.398Z,47.10
2018-06-30T04:57:30.237Z,47.50
2018-06-30T04:59:58.997Z,47.10
2018-06-30T05:02:27.937Z,44.50
2018-06-30T05:09:53.676Z,43.30
2018-06-30T05:12:22.486Z,43.00
2018-06-30T05:14:51.265Z,43.20
2018-06-30T05:19:48.526Z,41.50
2018-06-30T05:24:45.789Z,39.70
2018-06-30T05:27:14.558Z,39.20
2018-06-30T05:29:43.336Z,39.20
2018-06-30T05:32:12.150Z,38.00
2018-06-30T05:37:09.415Z,37.70
2018-06-30T05:39:38.295Z,36.80
2018-06-30T05:42:07.181Z,37.50
2018-06-30T05:44:36.046Z,35.70
2018-06-30T05:47:04.826Z,35.80
2018-06-30T05:49:33.612Z,35.80
2018-06-30T05:52:02.385Z,36.30
2018-06-30T05:54:31.158Z,35.10
2018-06-30T05:59:28.819Z,33.00
2018-06-30T06:04:25.969Z,30.80
2018-06-30T06:06:54.746Z,29.30
2018-06-30T06:09:23.526Z,29.80
2018-06-30T06:11:52.350Z,30.30
2018-06-30T06:14:21.109Z,36.20
2018-06-30T06:16:49.885Z,28.50
2018-06-30T06:19:18.647Z,29.40
2018-06-30T06:21:47.430Z,26.30
2018-06-30T06:24:16.470Z,23.90
2018-06-30T06:26:45.301Z,24.70
2018-06-30T06:29:14.065Z,24.90
2018-06-30T06:31:42.836Z,27.20
2018-06-30T06:34:11.610Z,25.30
2018-06-30T06:36:40.406Z,25.50
2018-06-30T06:39:10.278Z,24.60
2018-06-30T06:41:39.330Z,26.40
2018-06-30T06:44:08.256Z,21.70
2018-06-30T06:46:37.029Z,21.20
2018-06-30T06:49:05.879Z,22.10
2018-06-30T06:51:34.665Z,21.40
2018-06-30T06:54:03.602Z,20.00
2018-06-30T06:56:32.385Z,18.80
2018-06-30T06:59:01.201Z,17.20
2018-06-30T07:01:29.965Z,15.40
2018-06-30T07:03:58.741Z,17.80
2018-06-30T07:06:27.532Z,15.80
2018-06-30T07:08:56.388Z,15.80
2018-06-30T07:11:25.226Z,14.10
2018-06-30T07:13:54.020Z,15.80
2018-06-30T07:16:23.611Z,15.20
2018-06-30T07:18:52.470Z,14.10
2018-06-30T07:21:21.277Z,13.20
2018-06-30T07:23:50.089Z,13.90
2018-06-30T07:26:18.833Z,15.60
2018-06-30T07:28:47.665Z,13.90
2018-06-30T07:31:16.507Z,14.50
2018-06-30T07:33:45.285Z,11.90
2018-06-30T07:36:14.210Z,9.30
2018-06-30T07:38:42.993Z,7.40
2018-06-30T07:41:11.742Z,6.00
2018-06-30T07:46:09.066Z,5.60
2018-06-30T07:48:37.858Z,3.50
2018-06-30T07:51:06.646Z,1.10
2018-06-30T07:53:35.425Z,1.00
2018-06-30T07:56:04.406Z,1.00
2018-06-30T07:58:33.211Z,1.00
2018-06-30T08:01:02.057Z,1.00
2018-06-30T08:03:30.824Z,1.00
2018-06-30T08:05:59.582Z,1.00
2018-06-30T08:08:28.361Z,1.00
2018-06-30T08:10:57.105Z,1.00
2018-06-30T08:13:25.876Z,1.00
2018-06-30T08:15:57.837Z,1.00
2018-06-30T08:18:26.961Z,1.00
2018-06-30T08:20:55.713Z,1.00
2018-06-30T08:23:24.521Z,1.00
2018-06-30T08:25:53.271Z,1.00
2018-06-30T08:28:22.093Z,1.00
2018-06-30T08:30:50.824Z,1.00
2018-06-30T08:33:19.584Z,1.00
2018-06-30T08:35:48.340Z,1.00
2018-06-30T08:38:17.093Z,1.00
2018-06-30T08:40:45.860Z,1.00
2018-06-30T08:43:14.638Z,1.00
2018-06-30T08:45:43.401Z,1.00
2018-06-30T08:48:12.153Z,1.00
2018-06-30T08:50:40.897Z,1.00
2018-06-30T08:53:09.666Z,1.00
2018-06-30T08:55:38.478Z,1.00
2018-06-30T08:58:07.195Z,1.00
2018-06-30T09:00:35.951Z,1.00
2018-06-30T09:03:04.809Z,1.00
2018-06-30T09:05:33.920Z,1.00
2018-06-30T09:08:02.694Z,1.00
2018-06-30T09:10:31.448Z,1.00
2018-06-30T09:13:00.242Z,1.00
2018-06-30T09:15:29.029Z,1.00
2018-06-30T09:17:57.801Z,1.00
2018-06-30T09:20:26.602Z,1.00
2018-06-30T09:22:55.396Z,1.00
2018-06-30T09:25:24.694Z,1.00
2018-06-30T09:27:53.705Z,1.00
2018-06-30T09:30:22.466Z,1.00
2018-06-30T09:32:51.226Z,1.00
2018-06-30T09:35:19.988Z,1.00
2018-06-30T09:37:48.794Z,1.00
2018-06-30T09:40:17.530Z,1.00
2018-06-30T09:42:46.279Z,1.00
2018-06-30T09:45:15.140Z,1.00
2018-06-30T09:47:43.888Z,1.00
2018-06-30T09:50:12.650Z,1.00
2018-06-30T09:52:41.405Z,1.00
2018-06-30T09:55:10.182Z,1.00
2018-06-30T09:57:38.938Z,1.00
2018-06-30T10:00:08.409Z,1.00
2018-06-30T10:02:37.169Z,1.00
2018-06-30T10:05:05.946Z,1.00
2018-06-30T10:07:34.715Z,1.00
2018-06-30T10:10:03.562Z,1.00
2018-06-30T10:12:32.258Z,1.00
2018-06-30T10:15:01.006Z,1.00
2018-06-30T10:17:29.795Z,1.00
2018-06-30T10:19:58.529Z,1.00
2018-06-30T10:22:27.261Z,1.00
2018-06-30T10:24:56.030Z,1.00
2018-06-30T10:27:24.773Z,1.00
2018-06-30T10:29:53.565Z,1.00
2018-06-30T10:32:22.344Z,1.00
2018-06-30T10:34:51.100Z,1.00
2018-06-30T10:37:20.083Z,1.00
2018-06-30T10:39:48.833Z,1.00
2018-06-30T10:42:17.649Z,1.00
2018-06-30T10:44:46.359Z,1.00
2018-06-30T10:47:15.121Z,1.00
2018-06-30T10:49:43.889Z,1.00
2018-06-30T10:52:12.681Z,1.00
2018-06-30T10:54:41.441Z,1.00
2018-06-30T10:57:10.202Z,1.00
2018-06-30T10:59:38.993Z,1.00
2018-06-30T11:02:07.753Z,1.00
2018-06-30T11:04:36.517Z,1.00
2018-06-30T11:07:05.466Z,1.00
2018-06-30T11:09:34.253Z,1.00
2018-06-30T11:12:03.085Z,1.00
2018-06-30T11:14:31.862Z,1.00
2018-06-30T11:17:00.613Z,1.00
2018-06-30T11:19:29.381Z,1.00
2018-06-30T11:21:58.142Z,1.00
2018-06-30T11:24:26.914Z,1.00
2018-06-30T11:26:55.666Z,1.00
2018-06-30T11:29:25.228Z,1.00
2018-06-30T11:31:53.966Z,1.00
2018-06-30T11:34:22.765Z,1.00
2018-06-30T11:36:51.544Z,1.00
2018-06-30T11:39:20.301Z,1.00
2018-06-30T11:41:49.135Z,1.00
2018-06-30T11:44:17.822Z,1.00
2018-06-30T11:46:46.581Z,1.00
2018-06-30T11:49:15.352Z,1.00
2018-06-30T11:51:44.114Z,1.00
2018-06-30T11:54:12.872Z,1.00
2018-06-30T11:56:41.646Z,1.00
2018-06-30T11:59:10.390Z,1.00
2018-06-30T12:01:39.147Z,1.00
2018-06-30T12:04:07.897Z,1.00
2018-06-30T12:06:36.669Z,1.00
2018-06-30T12:09:07.842Z,1.00
2018-06-30T12:11:38.221Z,1.00
2018-06-30T12:14:07.549Z,1.00
2018-06-30T12:16:36.645Z,1.00
2018-06-30T12:19:05.503Z,1.00
2018-06-30T12:21:34.286Z,1.00
2018-06-30T12:24:03.071Z,1.00
2018-06-30T12:26:31.849Z,1.00
2018-06-30T12:29:00.632Z,1.00
2018-06-30T12:31:29.413Z,1.00
2018-06-30T12:33:58.227Z,1.00
2018-06-30T12:36:27.050Z,1.00
2018-06-30T12:38:55.811Z,1.00
2018-06-30T12:41:24.570Z,1.00
2018-06-30T12:43:53.341Z,1.00
2018-06-30T12:46:22.135Z,1.00
2018-06-30T12:48:50.894Z,1.00
2018-06-30T12:51:19.667Z,1.00
2018-06-30T12:53:48.412Z,1.00
2018-06-30T12:56:17.181Z,1.00
2018-06-30T12:58:45.944Z,1.00
2018-06-30T13:01:14.705Z,1.00
2018-06-30T13:03:43.493Z,1.00
2018-06-30T13:06:12.263Z,1.00
2018-06-30T13:08:40.992Z,1.00
2018-06-30T13:11:09.743Z,1.00
2018-06-30T13:13:38.490Z,1.00
2018-06-30T13:16:07.498Z,1.00
2018-06-30T13:18:36.589Z,1.00
2018-06-30T13:21:05.405Z,1.00
2018-06-30T13:23:34.204Z,1.00
2018-06-30T13:26:02.990Z,1.00
2018-06-30T13:28:31.746Z,1.00
2018-06-30T13:31:00.521Z,1.00
2018-06-30T13:33:29.292Z,1.00
2018-06-30T13:35:58.054Z,1.00
2018-06-30T13:38:26.852Z,1.00
2018-06-30T13:40:55.617Z,1.00
2018-06-30T13:43:24.375Z,1.00
2018-06-30T13:45:53.329Z,1.00
2018-06-30T13:48:22.186Z,1.00
2018-06-30T13:50:50.945Z,1.00
2018-06-30T13:53:19.762Z,1.00
2018-06-30T13:55:48.522Z,1.00
2018-06-30T13:58:17.317Z,1.00
2018-06-30T14:00:46.139Z,1.00
2018-06-30T14:03:14.861Z,1.00
2018-06-30T14:05:43.618Z,1.00
2018-06-30T14:08:12.445Z,1.00
2018-06-30T14:10:41.230Z,1.00
2018-06-30T14:13:10.006Z,1.00
2018-06-30T14:15:39.485Z,1.00
2018-06-30T14:18:08.251Z,1.00
2018-06-30T14:20:37.021Z,1.00
2018-06-30T14:23:05.917Z,1.00
2018-06-30T14:25:34.709Z,1.00
2018-06-30T14:28:03.513Z,1.00
2018-06-30T14:30:32.260Z,1.00
2018-06-30T14:33:01.025Z,1.00
2018-06-30T14:35:29.810Z,1.00
2018-06-30T14:37:58.592Z,1.00
2018-06-30T14:40:27.329Z,1.00
2018-06-30T14:42:56.106Z,1.00
2018-06-30T14:45:24.874Z,1.00
2018-06-30T14:47:54.102Z,1.00
2018-06-30T14:50:22.930Z,1.00
2018-06-30T14:52:51.706Z,1.00
2018-06-30T14:55:20.458Z,1.00
2018-06-30T14:57:49.355Z,1.00
2018-06-30T15:00:18.150Z,1.00
2018-06-30T15:02:46.941Z,1.00
2018-06-30T15:05:15.709Z,1.00
2018-06-30T15:07:44.614Z,1.00
2018-06-30T15:10:13.526Z,1.00
2018-06-30T15:12:42.526Z,1.00
2018-06-30T15:15:11.276Z,1.00
2018-06-30T15:17:40.217Z,1.00
2018-06-30T15:20:09.025Z,1.00
2018-06-30T15:22:38.237Z,1.00
2018-06-30T15:25:07.073Z,1.00
2018-06-30T15:27:35.893Z,1.00
2018-06-30T15:30:04.660Z,1.00
2018-06-30T15:32:33.471Z,1.00
2018-06-30T15:35:02.325Z,1.00
2018-06-30T15:37:31.108Z,1.00
2018-06-30T15:39:59.850Z,1.00
2018-06-30T15:42:28.621Z,1.00
2018-06-30T15:44:57.389Z,1.00
2018-06-30T15:47:26.220Z,1.00
2018-06-30T15:49:54.962Z,1.00
2018-06-30T15:52:23.741Z,1.00
2018-06-30T15:54:52.501Z,1.00
2018-06-30T15:57:21.269Z,1.00
2018-06-30T15:59:50.146Z,1.00
2018-06-30T16:02:19.046Z,1.00
2018-06-30T16:04:48.133Z,1.00
2018-06-30T16:07:17.092Z,1.00
2018-06-30T16:09:45.909Z,1.00
2018-06-30T16:12:14.614Z,1.00
2018-06-30T16:14:43.380Z,1.00
2018-06-30T16:17:12.169Z,1.00
2018-06-30T16:19:40.945Z,1.00
2018-06-30T16:22:09.730Z,1.00
2018-06-30T16:24:38.517Z,1.00
2018-06-30T16:27:07.281Z,1.00
2018-06-30T16:29:36.117Z,1.00
2018-06-30T16:32:04.869Z,1.00
2018-06-30T16:34:33.653Z,1.00
2018-06-30T16:37:02.408Z,1.00
2018-06-30T16:39:31.177Z,1.00
2018-06-30T16:41:59.957Z,1.00
2018-06-30T16:44:28.789Z,1.00
2018-06-30T16:46:57.545Z,1.00
2018-06-30T16:49:26.332Z,1.00
2018-06-30T16:51:55.094Z,1.00
2018-06-30T16:54:23.897Z,1.00
2018-06-30T16:56:52.672Z,1.00
2018-06-30T16:59:21.493Z,1.00
2018-06-30T17:01:50.250Z,1.00
2018-06-30T17:04:19.084Z,1.00
2018-06-30T17:06:47.844Z,1.00
2018-06-30T17:09:16.616Z,1.00
2018-06-30T17:11:45.478Z,1.00
2018-06-30T17:14:14.237Z,1.00
2018-06-30T17:16:42.997Z,1.00
2018-06-30T17:19:11.772Z,1.00
2018-06-30T17:21:40.533Z,1.00
2018-06-30T17:24:09.357Z,1.00
2018-06-30T17:26:38.140Z,1.00
2018-06-30T17:29:06.906Z,1.00
2018-06-30T17:31:35.686Z,1.00
2018-06-30T17:34:04.637Z,1.00
2018-06-30T17:36:33.413Z,1.00
2018-06-30T17:39:02.239Z,1.00
2018-06-30T17:41:31.006Z,1.00
2018-06-30T17:43:59.877Z,1.00
2018-06-30T17:46:28.633Z,1.00
2018-06-30T17:48:57.804Z,1.00
2018-06-30T17:51:26.625Z,1.00
2018-06-30T17:53:55.420Z,1.00
2018-06-30T17:56:24.197Z,1.00
2018-06-30T17:58:52.961Z,1.00
2018-06-30T18:01:21.729Z,1.00
2018-06-30T18:03:50.638Z,1.00
2018-06-30T18:06:19.388Z,1.00
2018-06-30T18:08:48.157Z,1.00
2018-06-30T18:11:16.952Z,1.00
2018-06-30T18:13:45.798Z,1.00
2018-06-30T18:16:14.643Z,1.00
2018-06-30T18:18:43.449Z,1.00
2018-06-30T18:21:12.214Z,1.00
2018-06-30T18:23:41.077Z,1.00
2018-06-30T18:26:09.842Z,1.00
2018-06-30T18:28:38.605Z,1.00
2018-06-30T18:31:07.510Z,1.00
2018-06-30T18:33:36.361Z,1.00
2018-06-30T18:36:05.214Z,1.00
2018-06-30T18:38:33.978Z,1.00
2018-06-30T18:41:02.741Z,1.00
2018-06-30T18:43:32.474Z,1.00
2018-06-30T18:46:01.511Z,1.00
2018-06-30T18:48:30.838Z,1.00
2018-06-30T18:50:59.864Z,1.00
2018-06-30T18:53:28.933Z,1.00
2018-06-30T18:55:57.832Z,1.00
2018-06-30T18:58:26.745Z,1.00
2018-06-30T19:00:55.872Z,1.00
2018-06-30T19:03:24.734Z,1.00
2018-06-30T19:05:53.564Z,1.00
2018-06-30T19:08:22.305Z,1.00
2018-06-30T19:10:51.201Z,1.00
2018-06-30T19:13:19.941Z,1.00
2018-06-30T19:15:48.750Z,1.00
2018-06-30T19:18:17.541Z,1.00
2018-06-30T19:20:46.293Z,1.00
2018-06-30T19:23:15.142Z,1.00
2018-06-30T19:25:43.897Z,1.00
2018-06-30T19:28:12.713Z,1.00
2018-06-30T19:30:41.498Z,1.00
2018-06-30T19:33:10.261Z,1.00
2018-06-30T19:35:39.026Z,1.00
2018-06-30T19:38:07.807Z,1.00
2018-06-30T19:40:36.566Z,1.00
2018-06-30T19:43:05.334Z,1.00
2018-06-30T19:45:34.101Z,1.00
2018-06-30T19:48:03.010Z,1.00
2018-06-30T19:50:31.777Z,1.00
2018-06-30T19:53:00.602Z,1.00
2018-06-30T19:55:29.294Z,1.00
2018-06-30T19:57:58.090Z,1.00
2018-06-30T20:00:26.916Z,1.00
2018-06-30T20:02:55.691Z,1.00
2018-06-30T20:05:24.429Z,1.00
2018-06-30T20:07:53.200Z,1.00
2018-06-30T20:10:22.413Z,1.00
2018-06-30T20:12:51.206Z,1.00
2018-06-30T20:15:19.971Z,1.00
2018-06-30T20:17:48.778Z,1.00
2018-06-30T20:20:17.530Z,1.00
2018-06-30T20:22:46.297Z,1.00
2018-06-30T20:25:15.049Z,1.00
2018-06-30T20:27:43.893Z,1.00
2018-06-30T20:30:12.702Z,1.00
2018-06-30T20:32:41.545Z,1.00
2018-06-30T20:35:10.417Z,1.00
2018-06-30T20:37:39.334Z,1.00
2018-06-30T20:40:08.086Z,1.00
2018-06-30T20:42:36.853Z,1.00
2018-06-30T20:45:05.838Z,1.00
2018-06-30T20:47:34.633Z,1.00
2018-06-30T20:50:03.374Z,1.00
2018-06-30T20:52:32.129Z,1.00
2018-06-30T20:57:57.653Z,1.00
2018-06-30T21:00:26.429Z,1.00
2018-06-30T21:02:55.216Z,1.00
2018-06-30T21:05:23.937Z,1.00
2018-06-30T21:07:52.864Z,1.00
2018-06-30T21:10:21.593Z,1.00
2018-06-30T21:12:50.352Z,1.00
2018-06-30T21:15:19.110Z,1.00
2018-06-30T21:17:47.843Z,1.00
2018-06-30T21:20:16.568Z,1.00
2018-06-30T21:22:45.305Z,1.00
2018-06-30T21:25:14.097Z,1.00
2018-06-30T21:27:42.852Z,1.00
2018-06-30T21:30:11.585Z,1.00
2018-06-30T21:32:40.342Z,1.00
2018-06-30T21:35:09.225Z,1.70
2018-06-30T21:37:37.987Z,2.50
2018-06-30T21:40:06.749Z,2.50
2018-06-30T21:42:35.529Z,3.50
2018-06-30T21:45:04.510Z,4.10
2018-06-30T21:47:33.302Z,4.60
2018-06-30T21:50:02.058Z,5.00
2018-06-30T21:52:30.814Z,5.90
2018-06-30T21:54:59.574Z,6.20
2018-06-30T21:57:28.353Z,6.70
2018-06-30T21:59:57.085Z,7.50
2018-06-30T22:02:25.896Z,8.20
2018-06-30T22:04:54.705Z,8.40
2018-06-30T22:07:23.456Z,9.00
2018-06-30T22:09:52.329Z,9.50
2018-06-30T22:12:21.086Z,9.60
2018-06-30T22:14:49.857Z,10.10
2018-06-30T22:17:18.606Z,9.90
2018-06-30T22:19:47.346Z,10.90
2018-06-30T22:22:16.133Z,10.90
2018-06-30T22:24:44.885Z,11.10
2018-06-30T22:27:13.605Z,11.30
2018-06-30T22:29:42.344Z,11.00
2018-06-30T22:32:11.082Z,11.40
2018-06-30T22:34:39.859Z,12.00
2018-06-30T22:37:08.589Z,11.80
2018-06-30T22:39:48.644Z,11.70
2018-06-30T22:42:17.397Z,11.80
2018-06-30T22:44:46.169Z,11.70
2018-06-30T22:47:14.944Z,12.10
2018-06-30T22:49:43.678Z,11.80
2018-06-30T22:52:12.432Z,12.50
2018-06-30T22:54:41.243Z,12.50
2018-06-30T22:57:09.981Z,12.50
2018-06-30T22:59:38.735Z,12.80
2018-06-30T23:02:07.496Z,12.30
2018-06-30T23:04:36.233Z,11.70
2018-06-30T23:07:05.124Z,11.50
2018-06-30T23:09:33.898Z,11.90
2018-06-30T23:12:02.631Z,11.90
2018-06-30T23:14:31.385Z,12.40
2018-06-30T23:17:00.108Z,12.20
2018-06-30T23:19:28.853Z,12.50
2018-06-30T23:21:57.609Z,12.70
2018-06-30T23:24:26.397Z,12.60
2018-06-30T23:26:55.129Z,12.30
2018-06-30T23:29:23.985Z,12.70
2018-06-30T23:31:53.002Z,13.10
2018-06-30T23:34:22.027Z,12.90
2018-06-30T23:36:50.790Z,12.90
2018-06-30T23:39:19.542Z,12.90
2018-06-30T23:41:48.299Z,13.50
2018-06-30T23:46:45.665Z,14.00
2018-06-30T23:51:43.137Z,14.40
2018-06-30T23:56:40.401Z,15.00
2018-06-30T23:59:09.152Z,14.80
